createdAt,value
2024-04-23T00:01:06.510Z,9.07
2024-04-23T00:03:33.229Z,6.85
2024-04-23T00:06:00.018Z,8.68
2024-04-23T00:08:27.015Z,8.52
2024-04-23T00:10:53.960Z,8.38
2024-04-23T00:13:20.847Z,8.10
2024-04-23T00:15:47.743Z,6.32
2024-04-23T00:18:14.602Z,6.28
2024-04-23T00:20:41.399Z,6.57
2024-04-23T00:23:08.067Z,7.22
2024-04-23T00:25:34.793Z,8.23
2024-04-23T00:28:01.642Z,5.68
2024-04-23T00:30:28.492Z,6.47
2024-04-23T00:32:55.263Z,10.50
2024-04-23T00:35:22.132Z,7.97
2024-04-23T00:37:49.129Z,6.57
2024-04-23T00:40:15.798Z,7.20
2024-04-23T00:42:42.690Z,8.65
2024-04-23T00:45:10.879Z,6.72
2024-04-23T00:47:37.767Z,7.38
2024-04-23T00:50:04.742Z,8.02
2024-04-23T00:52:32.391Z,9.38
2024-04-23T00:54:59.481Z,8.13
2024-04-23T00:57:26.413Z,7.50
2024-04-23T00:59:53.627Z,9.30
2024-04-23T01:02:20.509Z,8.57
2024-04-23T01:04:47.555Z,9.48
2024-04-23T01:07:14.482Z,7.13
2024-04-23T01:09:41.318Z,7.20
2024-04-23T01:12:08.315Z,12.25
2024-04-23T01:14:38.429Z,8.00
2024-04-23T01:17:06.361Z,10.30
2024-04-23T01:19:40.779Z,7.57
2024-04-23T01:22:16.014Z,8.27
2024-04-23T01:25:07.308Z,8.57
2024-04-23T01:27:35.000Z,8.73
2024-04-23T01:30:02.102Z,8.48
2024-04-23T01:32:30.886Z,8.45
2024-04-23T01:35:09.563Z,9.13
2024-04-23T01:37:37.431Z,7.00
2024-04-23T01:40:05.196Z,7.85
2024-04-23T01:42:33.654Z,9.20
2024-04-23T01:45:01.686Z,6.50
2024-04-23T01:47:28.707Z,7.72
2024-04-23T01:49:56.737Z,7.80
2024-04-23T01:52:23.832Z,7.80
2024-04-23T01:54:50.892Z,7.20
2024-04-23T01:57:18.546Z,8.85
2024-04-23T01:59:54.911Z,8.35
2024-04-23T02:02:22.675Z,7.43
2024-04-23T02:04:49.862Z,7.13
2024-04-23T02:07:18.054Z,10.65
2024-04-23T02:09:47.120Z,6.00
2024-04-23T02:12:18.249Z,7.90
2024-04-23T02:14:44.941Z,5.57
2024-04-23T02:17:12.915Z,8.48
2024-04-23T02:19:39.904Z,5.95
2024-04-23T02:22:06.764Z,6.20
2024-04-23T02:24:33.508Z,6.78
2024-04-23T02:27:00.699Z,6.88
2024-04-23T02:29:27.534Z,6.15
2024-04-23T02:31:54.325Z,5.55
2024-04-23T02:34:21.281Z,6.07
2024-04-23T02:36:48.102Z,6.00
2024-04-23T02:39:14.902Z,6.70
2024-04-23T02:41:51.868Z,5.88
2024-04-23T02:44:19.287Z,6.75
2024-04-23T02:46:46.789Z,10.80
2024-04-23T02:49:13.633Z,10.30
2024-04-23T02:51:50.441Z,7.72
2024-04-23T02:54:17.214Z,7.30
2024-04-23T02:56:49.206Z,7.68
2024-04-23T02:59:16.585Z,7.82
2024-04-23T03:01:43.262Z,9.38
2024-04-23T03:04:10.167Z,8.15
2024-04-23T03:06:36.901Z,7.13
2024-04-23T03:09:04.011Z,10.32
2024-04-23T03:11:31.086Z,7.18
2024-04-23T03:13:57.923Z,7.20
2024-04-23T03:16:24.990Z,6.68
2024-04-23T03:18:51.704Z,8.20
2024-04-23T03:21:18.589Z,10.07
2024-04-23T03:23:45.391Z,9.30
2024-04-23T03:26:12.305Z,8.77
2024-04-23T03:28:39.090Z,9.38
2024-04-23T03:31:05.961Z,9.88
2024-04-23T03:33:32.821Z,10.27
2024-04-23T03:35:59.638Z,9.93
2024-04-23T03:38:26.631Z,12.13
2024-04-23T03:40:53.387Z,9.82
2024-04-23T03:43:20.168Z,9.70
2024-04-23T03:45:47.010Z,8.15
2024-04-23T03:48:13.999Z,11.55
2024-04-23T03:50:40.717Z,8.73
2024-04-23T03:53:07.573Z,7.25
2024-04-23T03:55:34.368Z,8.73
2024-04-23T03:58:01.242Z,6.80
2024-04-23T04:00:28.939Z,8.05
2024-04-23T04:03:14.304Z,9.82
2024-04-23T04:05:59.618Z,11.40
2024-04-23T04:08:26.406Z,7.93
2024-04-23T04:10:53.318Z,9.20
2024-04-23T04:13:23.901Z,9.95
2024-04-23T04:15:51.969Z,6.72
2024-04-23T04:18:19.845Z,11.45
2024-04-23T04:20:47.053Z,8.38
2024-04-23T04:23:13.850Z,13.73
2024-04-23T04:25:40.810Z,10.18
2024-04-23T04:28:07.745Z,10.88
2024-04-23T04:30:34.425Z,8.75
2024-04-23T04:33:01.401Z,7.97
2024-04-23T04:35:28.379Z,9.77
2024-04-23T04:37:56.396Z,8.70
2024-04-23T04:40:23.361Z,9.75
2024-04-23T04:42:52.210Z,12.13
2024-04-23T04:45:19.656Z,9.40
2024-04-23T04:47:50.346Z,8.32
2024-04-23T04:50:20.791Z,8.90
2024-04-23T04:52:47.948Z,8.30
2024-04-23T04:55:14.851Z,8.88
2024-04-23T04:57:41.850Z,12.48
2024-04-23T05:00:09.261Z,8.57
2024-04-23T05:02:36.012Z,9.48
2024-04-23T05:05:03.036Z,9.18
2024-04-23T05:07:29.984Z,13.75
2024-04-23T05:09:57.112Z,9.70
2024-04-23T05:12:23.980Z,10.40
2024-04-23T05:14:50.818Z,10.93
2024-04-23T05:17:17.630Z,10.70
2024-04-23T05:19:45.969Z,11.60
2024-04-23T05:22:13.351Z,7.32
2024-04-23T05:24:40.492Z,8.45
2024-04-23T05:27:07.538Z,10.25
2024-04-23T05:29:34.283Z,11.25
2024-04-23T05:32:19.687Z,10.43
2024-04-23T05:34:46.705Z,10.27
2024-04-23T05:37:13.603Z,10.43
2024-04-23T05:39:40.379Z,11.02
2024-04-23T05:42:07.293Z,12.25
2024-04-23T05:44:34.113Z,13.35
2024-04-23T05:47:01.056Z,13.57
2024-04-23T05:50:05.578Z,9.50
2024-04-23T05:53:10.044Z,12.98
2024-04-23T05:55:39.727Z,13.45
2024-04-23T05:58:06.954Z,11.32
2024-04-23T06:00:34.580Z,11.98
2024-04-23T06:03:02.157Z,11.90
2024-04-23T06:05:29.209Z,13.05
2024-04-23T06:07:56.807Z,15.13
2024-04-23T06:10:23.691Z,13.43
2024-04-23T06:12:51.342Z,15.52
2024-04-23T06:15:19.216Z,21.95
2024-04-23T06:17:48.274Z,16.50
2024-04-23T06:20:16.162Z,22.60
2024-04-23T06:22:44.125Z,19.08
2024-04-23T06:25:11.678Z,17.30
2024-04-23T06:27:40.038Z,15.02
2024-04-23T06:30:07.939Z,13.80
2024-04-23T06:32:34.910Z,18.27
2024-04-23T06:35:03.734Z,19.55
2024-04-23T06:37:30.924Z,9.55
2024-04-23T06:40:03.285Z,7.70
2024-04-23T06:42:30.181Z,12.85
2024-04-23T06:44:58.879Z,11.93
2024-04-23T06:47:26.205Z,8.98
2024-04-23T06:49:53.121Z,9.05
2024-04-23T06:52:19.924Z,9.40
2024-04-23T06:54:46.775Z,13.02
2024-04-23T06:57:14.287Z,13.13
2024-04-23T06:59:44.275Z,11.75
2024-04-23T07:02:12.568Z,12.30
2024-04-23T07:04:39.728Z,13.63
2024-04-23T07:07:07.005Z,12.52
2024-04-23T07:09:34.139Z,9.35
2024-04-23T07:12:00.989Z,11.52
2024-04-23T07:14:27.690Z,7.75
2024-04-23T07:16:54.624Z,8.80
2024-04-23T07:19:21.322Z,10.40
2024-04-23T07:21:48.359Z,9.50
2024-04-23T07:24:15.060Z,10.05
2024-04-23T07:26:43.448Z,9.10
2024-04-23T07:29:10.433Z,10.32
2024-04-23T07:31:37.552Z,9.68
2024-04-23T07:34:04.617Z,12.57
2024-04-23T07:36:31.488Z,11.77
2024-04-23T07:38:58.320Z,11.65
2024-04-23T07:41:25.058Z,12.93
2024-04-23T07:43:52.033Z,12.88
2024-04-23T07:46:18.805Z,11.15
2024-04-23T07:48:45.659Z,13.40
2024-04-23T07:51:12.440Z,8.85
2024-04-23T07:53:39.356Z,8.25
2024-04-23T07:56:08.672Z,9.80
2024-04-23T07:58:39.346Z,5.25
2024-04-23T08:01:06.988Z,6.50
2024-04-23T08:03:35.606Z,8.20
2024-04-23T08:06:03.643Z,8.27
2024-04-23T08:08:30.525Z,9.40
2024-04-23T08:10:57.411Z,6.80
2024-04-23T08:13:24.243Z,5.10
2024-04-23T08:15:51.062Z,6.95
2024-04-23T08:18:17.974Z,7.13
2024-04-23T08:20:44.700Z,13.82
2024-04-23T08:23:11.611Z,13.25
2024-04-23T08:25:38.404Z,14.25
2024-04-23T08:28:05.476Z,10.95
2024-04-23T08:30:33.543Z,12.68
2024-04-23T08:33:00.684Z,12.27
2024-04-23T08:35:27.825Z,13.65
2024-04-23T08:37:54.788Z,9.10
2024-04-23T08:40:22.480Z,8.70
2024-04-23T08:42:53.465Z,10.75
2024-04-23T08:45:26.222Z,11.90
2024-04-23T08:47:53.590Z,14.77
2024-04-23T08:50:23.226Z,13.32
2024-04-23T08:52:50.783Z,14.18
2024-04-23T08:55:18.167Z,11.77
2024-04-23T08:57:45.525Z,18.98
2024-04-23T09:00:13.207Z,9.80
2024-04-23T09:02:42.316Z,10.88
2024-04-23T09:05:10.371Z,13.48
2024-04-23T09:07:38.527Z,10.82
2024-04-23T09:10:07.489Z,9.98
2024-04-23T09:12:35.205Z,9.45
2024-04-23T09:15:02.661Z,8.65
2024-04-23T09:17:33.692Z,9.15
2024-04-23T09:20:06.054Z,9.00
2024-04-23T09:22:33.000Z,8.25
2024-04-23T09:25:06.034Z,10.65
2024-04-23T09:27:38.040Z,8.48
2024-04-23T09:30:05.547Z,15.38
2024-04-23T09:32:32.924Z,11.35
2024-04-23T09:35:00.194Z,15.90
2024-04-23T09:37:27.258Z,10.80
2024-04-23T09:40:02.401Z,18.38
2024-04-23T09:42:29.308Z,13.32
2024-04-23T09:44:56.125Z,13.20
2024-04-23T09:47:26.959Z,11.05
2024-04-23T09:49:55.969Z,14.57
2024-04-23T09:52:34.297Z,13.15
2024-04-23T09:55:02.164Z,11.65
2024-04-23T09:57:29.050Z,10.48
2024-04-23T09:59:55.942Z,11.80
2024-04-23T10:02:30.657Z,9.95
2024-04-23T10:05:08.861Z,14.05
2024-04-23T10:07:53.622Z,8.00
2024-04-23T10:10:27.341Z,11.27
2024-04-23T10:12:57.225Z,8.27
2024-04-23T10:15:33.002Z,8.30
2024-04-23T10:18:25.852Z,8.75
2024-04-23T10:20:54.370Z,8.70
2024-04-23T10:23:21.694Z,5.55
2024-04-23T10:25:49.382Z,7.38
2024-04-23T10:28:16.956Z,11.07
2024-04-23T10:30:44.123Z,9.23
2024-04-23T10:33:13.503Z,10.25
2024-04-23T10:35:40.852Z,7.07
2024-04-23T10:38:09.997Z,8.15
2024-04-23T10:40:46.223Z,6.13
2024-04-23T10:43:19.920Z,6.50
2024-04-23T10:45:47.085Z,13.23
2024-04-23T10:48:14.049Z,7.00
2024-04-23T10:50:40.956Z,7.65
2024-04-23T10:53:09.347Z,6.35
2024-04-23T10:55:36.752Z,6.18
2024-04-23T10:58:03.658Z,7.82
2024-04-23T11:00:38.445Z,9.13
2024-04-23T11:03:18.600Z,6.93
2024-04-23T11:05:49.738Z,6.28
2024-04-23T11:08:27.511Z,6.35
2024-04-23T11:11:00.156Z,10.73
2024-04-23T11:13:45.752Z,6.45
2024-04-23T11:16:21.280Z,8.13
2024-04-23T11:18:54.140Z,5.78
2024-04-23T11:21:32.437Z,7.32
2024-04-23T11:24:07.465Z,8.88
2024-04-23T11:26:37.241Z,10.27
2024-04-23T11:29:10.451Z,9.10
2024-04-23T11:31:37.629Z,7.20
2024-04-23T11:34:04.767Z,7.65
2024-04-23T11:36:36.385Z,7.10
2024-04-23T11:39:08.817Z,7.65
2024-04-23T11:41:35.486Z,8.95
2024-04-23T11:44:03.009Z,6.28
2024-04-23T11:46:33.469Z,6.22
2024-04-23T11:49:00.146Z,8.88
2024-04-23T11:51:26.891Z,6.07
2024-04-23T11:53:56.042Z,6.50
2024-04-23T11:56:23.735Z,6.05
2024-04-23T11:58:50.431Z,6.72
2024-04-23T12:01:17.093Z,6.68
2024-04-23T12:03:44.716Z,7.03
2024-04-23T12:06:12.419Z,7.03
2024-04-23T12:08:39.949Z,7.20
2024-04-23T12:11:07.346Z,5.68
2024-04-23T12:13:34.374Z,5.82
2024-04-23T12:16:05.500Z,6.55
2024-04-23T12:18:32.365Z,6.37
2024-04-23T12:20:59.162Z,5.97
2024-04-23T12:23:26.562Z,8.20
2024-04-23T12:25:54.056Z,6.93
2024-04-23T12:28:22.028Z,5.47
2024-04-23T12:30:48.782Z,8.88
2024-04-23T12:33:15.753Z,8.50
2024-04-23T12:35:43.408Z,6.05
2024-04-23T12:38:14.354Z,5.88
2024-04-23T12:40:41.665Z,6.10
2024-04-23T12:43:12.405Z,5.80
2024-04-23T12:45:39.831Z,7.65
2024-04-23T12:48:06.881Z,7.22
2024-04-23T12:50:33.807Z,6.47
2024-04-23T12:53:00.960Z,5.65
2024-04-23T12:55:29.185Z,7.85
2024-04-23T12:57:55.930Z,5.63
2024-04-23T13:00:22.543Z,5.15
2024-04-23T13:02:49.256Z,6.40
2024-04-23T13:05:16.076Z,5.82
2024-04-23T13:07:42.729Z,5.82
2024-04-23T13:10:09.521Z,5.95
2024-04-23T13:12:36.142Z,6.72
2024-04-23T13:15:02.833Z,7.15
2024-04-23T13:17:29.505Z,6.35
2024-04-23T13:20:00.443Z,5.00
2024-04-23T13:24:54.719Z,8.82
2024-04-23T13:27:21.378Z,5.95
2024-04-23T13:29:48.150Z,6.47
2024-04-23T13:32:15.030Z,7.00
2024-04-23T13:34:41.858Z,5.10
2024-04-23T13:37:08.664Z,7.85
2024-04-23T13:39:35.375Z,5.57
2024-04-23T13:42:02.431Z,7.15
2024-04-23T13:44:33.997Z,6.50
2024-04-23T13:47:01.319Z,6.78
2024-04-23T13:49:28.027Z,4.70
2024-04-23T13:51:54.651Z,6.03
2024-04-23T13:54:21.263Z,5.45
2024-04-23T13:56:48.011Z,6.35
2024-04-23T13:59:17.197Z,4.60
2024-04-23T14:01:44.396Z,9.43
2024-04-23T14:04:12.180Z,4.43
2024-04-23T14:06:38.901Z,6.22
2024-04-23T14:09:05.960Z,6.72
2024-04-23T14:11:32.906Z,7.40
2024-04-23T14:13:59.668Z,5.78
2024-04-23T14:16:26.426Z,8.18
2024-04-23T14:18:53.573Z,6.15
2024-04-23T14:21:20.497Z,9.05
2024-04-23T14:23:47.187Z,6.38
2024-04-23T14:26:18.312Z,6.07
2024-04-23T14:28:45.370Z,6.35
2024-04-23T14:31:12.105Z,5.72
2024-04-23T14:33:44.818Z,5.85
2024-04-23T14:36:13.141Z,5.55
2024-04-23T14:38:40.870Z,7.38
2024-04-23T14:41:08.348Z,8.50
2024-04-23T14:43:35.321Z,10.85
2024-04-23T14:46:12.842Z,5.40
2024-04-23T14:48:40.261Z,6.20
2024-04-23T14:51:07.154Z,7.35
2024-04-23T14:53:34.148Z,6.85
2024-04-23T14:56:02.198Z,5.75
2024-04-23T14:58:30.251Z,5.68
2024-04-23T15:00:57.551Z,8.25
2024-04-23T15:03:24.691Z,7.15
2024-04-23T15:05:51.477Z,7.53
2024-04-23T15:08:18.291Z,7.72
2024-04-23T15:10:53.902Z,7.28
2024-04-23T15:13:23.220Z,7.75
2024-04-23T15:16:02.178Z,7.97
2024-04-23T15:18:33.060Z,10.30
2024-04-23T15:21:08.648Z,6.38
2024-04-23T15:23:35.923Z,6.72
2024-04-23T15:26:03.331Z,10.45
2024-04-23T15:28:34.696Z,7.68
2024-04-23T15:31:02.294Z,6.00
2024-04-23T15:33:29.656Z,6.57
2024-04-23T15:36:09.449Z,6.85
2024-04-23T15:38:37.304Z,6.93
2024-04-23T15:41:05.191Z,6.45
2024-04-23T15:43:32.771Z,5.93
2024-04-23T15:46:00.024Z,8.05
2024-04-23T15:48:29.704Z,8.70
2024-04-23T15:51:00.487Z,7.07
2024-04-23T15:53:30.235Z,7.15
2024-04-23T15:56:01.107Z,6.25
2024-04-23T15:58:31.817Z,8.35
2024-04-23T16:01:09.616Z,6.10
2024-04-23T16:03:37.595Z,8.10
2024-04-23T16:06:05.522Z,7.72
2024-04-23T16:08:33.606Z,6.47
2024-04-23T16:11:02.291Z,7.10
2024-04-23T16:13:30.066Z,10.68
2024-04-23T16:15:58.094Z,7.65
2024-04-23T16:18:27.194Z,8.15
2024-04-23T16:20:54.341Z,5.72
2024-04-23T16:23:22.372Z,7.20
2024-04-23T16:25:49.034Z,8.30
2024-04-23T16:28:15.711Z,7.28
2024-04-23T16:30:43.797Z,8.02
2024-04-23T16:33:10.880Z,5.70
2024-04-23T16:35:40.158Z,6.38
2024-04-23T16:38:07.793Z,6.80
2024-04-23T16:40:34.470Z,9.05
2024-04-23T16:43:01.065Z,7.88
2024-04-23T16:45:27.762Z,6.95
2024-04-23T16:47:54.420Z,6.78
2024-04-23T16:50:21.219Z,8.63
2024-04-23T16:52:47.864Z,5.82
2024-04-23T16:55:14.521Z,6.18
2024-04-23T16:57:43.125Z,5.72
2024-04-23T17:00:10.258Z,7.72
2024-04-23T17:02:36.951Z,6.65
2024-04-23T17:05:03.833Z,10.30
2024-04-23T17:07:32.208Z,8.90
2024-04-23T17:09:59.158Z,8.75
2024-04-23T17:12:26.276Z,6.43
2024-04-23T17:14:52.857Z,7.30
2024-04-23T17:17:19.567Z,5.40
2024-04-23T17:19:46.294Z,6.30
2024-04-23T17:22:12.892Z,7.20
2024-04-23T17:24:39.541Z,6.38
2024-04-23T17:27:06.230Z,6.25
2024-04-23T17:29:32.864Z,5.40
2024-04-23T17:32:01.618Z,6.18
2024-04-23T17:34:31.215Z,6.20
2024-04-23T17:36:58.594Z,6.43
2024-04-23T17:39:25.317Z,9.48
2024-04-23T17:41:52.233Z,5.82
2024-04-23T17:44:18.987Z,9.93
2024-04-23T17:46:45.873Z,5.70
2024-04-23T17:49:12.837Z,8.43
2024-04-23T17:51:39.485Z,6.05
2024-04-23T17:54:06.218Z,7.53
2024-04-23T17:56:33.373Z,8.25
2024-04-23T17:59:00.268Z,8.25
2024-04-23T18:01:26.870Z,5.50
2024-04-23T18:03:53.561Z,7.75
2024-04-23T18:06:20.238Z,6.25
2024-04-23T18:08:46.917Z,7.90
2024-04-23T18:11:15.908Z,7.50
2024-04-23T18:13:42.660Z,8.20
2024-04-23T18:16:10.544Z,9.00
2024-04-23T18:18:37.379Z,10.48
2024-04-23T18:21:04.650Z,13.32
2024-04-23T18:23:35.398Z,9.27
2024-04-23T18:26:02.150Z,12.25
2024-04-23T18:28:34.193Z,13.50
2024-04-23T18:31:04.875Z,11.32
2024-04-23T18:33:31.664Z,11.23
2024-04-23T18:36:05.404Z,11.10
2024-04-23T18:38:32.907Z,11.90
2024-04-23T18:41:13.422Z,13.48
2024-04-23T18:43:40.520Z,11.98
2024-04-23T18:46:17.160Z,10.73
2024-04-23T18:48:47.658Z,11.98
2024-04-23T18:51:15.057Z,9.85
2024-04-23T18:53:42.696Z,8.85
2024-04-23T18:56:13.948Z,8.35
2024-04-23T18:58:41.132Z,10.35
2024-04-23T19:01:15.340Z,12.25
2024-04-23T19:03:42.620Z,12.15
2024-04-23T19:06:12.777Z,10.93
2024-04-23T19:08:39.585Z,11.75
2024-04-23T19:11:06.387Z,10.98
2024-04-23T19:13:32.998Z,11.90
2024-04-23T19:16:09.571Z,9.80
2024-04-23T19:18:36.472Z,12.25
2024-04-23T19:21:03.461Z,11.90
2024-04-23T19:23:30.165Z,17.27
2024-04-23T19:26:01.168Z,13.82
2024-04-23T19:28:27.891Z,12.73
2024-04-23T19:30:56.005Z,12.73
2024-04-23T19:33:22.815Z,11.95
2024-04-23T19:35:51.901Z,11.02
2024-04-23T19:38:19.715Z,11.05
2024-04-23T19:40:46.472Z,11.68
2024-04-23T19:43:13.134Z,11.73
2024-04-23T19:45:39.781Z,14.55
2024-04-23T19:48:06.613Z,8.82
2024-04-23T19:50:33.213Z,8.77
2024-04-23T19:52:59.828Z,8.07
2024-04-23T19:55:26.469Z,9.18
2024-04-23T19:58:11.741Z,9.05
2024-04-23T20:00:41.277Z,11.43
2024-04-23T20:03:08.545Z,11.38
2024-04-23T20:05:36.032Z,12.95
2024-04-23T20:08:02.696Z,10.95
2024-04-23T20:10:29.394Z,13.45
2024-04-23T20:12:55.981Z,10.68
2024-04-23T20:15:22.604Z,11.35
2024-04-23T20:17:49.436Z,13.60
2024-04-23T20:20:16.230Z,13.85
2024-04-23T20:22:42.935Z,17.95
2024-04-23T20:25:09.546Z,12.50
2024-04-23T20:27:36.229Z,16.02
2024-04-23T20:30:03.723Z,15.95
2024-04-23T20:32:30.406Z,10.50
2024-04-23T20:34:57.111Z,12.20
2024-04-23T20:37:23.710Z,9.90
2024-04-23T20:39:50.354Z,12.68
2024-04-23T20:42:16.952Z,13.35
2024-04-23T20:44:43.661Z,11.75
2024-04-23T20:47:10.388Z,9.40
2024-04-23T20:49:37.044Z,9.25
2024-04-23T20:52:03.731Z,7.72
2024-04-23T20:54:30.303Z,7.40
2024-04-23T20:56:56.926Z,8.65
2024-04-23T20:59:23.952Z,8.45
2024-04-23T21:01:50.639Z,8.20
2024-04-23T21:04:17.344Z,9.57
2024-04-23T21:06:44.072Z,10.68
2024-04-23T21:09:10.943Z,8.73
2024-04-23T21:11:40.330Z,10.63
2024-04-23T21:14:07.557Z,8.98
2024-04-23T21:16:34.355Z,7.00
2024-04-23T21:19:01.056Z,8.32
2024-04-23T21:21:27.678Z,7.68
2024-04-23T21:23:54.313Z,9.10
2024-04-23T21:26:21.192Z,7.82
2024-04-23T21:28:48.107Z,11.77
2024-04-23T21:31:14.770Z,9.10
2024-04-23T21:33:41.497Z,9.52
2024-04-23T21:36:09.697Z,15.40
2024-04-23T21:38:37.748Z,10.07
2024-04-23T21:41:09.623Z,12.85
2024-04-23T21:43:37.513Z,13.07
2024-04-23T21:46:13.014Z,10.45
2024-04-23T21:48:39.741Z,11.90
2024-04-23T21:51:10.602Z,9.43
2024-04-23T21:53:37.845Z,8.10
2024-04-23T21:56:06.286Z,14.40
2024-04-23T21:58:37.800Z,12.60
2024-04-23T22:01:19.633Z,10.43
2024-04-23T22:03:47.322Z,8.63
2024-04-23T22:06:14.520Z,12.55
2024-04-23T22:08:41.516Z,10.20
2024-04-23T22:11:08.288Z,10.90
2024-04-23T22:13:35.367Z,12.75
2024-04-23T22:16:02.192Z,10.10
2024-04-23T22:18:29.037Z,10.23
2024-04-23T22:20:55.799Z,12.80
2024-04-23T22:23:25.136Z,12.30
2024-04-23T22:25:51.900Z,10.48
2024-04-23T22:28:18.718Z,10.55
2024-04-23T22:30:46.633Z,13.45
2024-04-23T22:33:13.586Z,11.52
2024-04-23T22:35:40.507Z,13.68
2024-04-23T22:38:07.144Z,11.88
2024-04-23T22:40:33.781Z,11.95
2024-04-23T22:43:00.382Z,13.48
2024-04-23T22:45:29.231Z,12.57
2024-04-23T22:47:56.128Z,13.55
2024-04-23T22:50:22.985Z,13.73
2024-04-23T22:52:49.934Z,13.43
2024-04-23T22:55:16.603Z,12.40
2024-04-23T22:57:43.264Z,12.57
2024-04-23T23:00:10.536Z,13.40
2024-04-23T23:02:37.268Z,11.30
2024-04-23T23:05:04.147Z,14.70
2024-04-23T23:07:30.859Z,12.23
2024-04-23T23:09:57.478Z,14.00
2024-04-23T23:12:24.109Z,10.98
2024-04-23T23:14:50.932Z,12.55
2024-04-23T23:17:20.557Z,13.50
2024-04-23T23:19:47.304Z,11.50
2024-04-23T23:22:13.984Z,12.35
2024-04-23T23:24:40.634Z,12.68
2024-04-23T23:27:07.279Z,11.35
2024-04-23T23:29:33.923Z,13.02
2024-04-23T23:32:00.617Z,10.18
2024-04-23T23:34:27.292Z,11.68
2024-04-23T23:36:53.924Z,13.40
2024-04-23T23:39:20.533Z,13.15
2024-04-23T23:41:47.193Z,13.02
2024-04-23T23:44:13.863Z,14.57
2024-04-23T23:46:40.695Z,12.70
2024-04-23T23:49:07.310Z,21.17
2024-04-23T23:51:34.056Z,14.27
2024-04-23T23:54:00.790Z,15.18
2024-04-23T23:56:27.393Z,15.25
2024-04-23T23:58:54.090Z,18.15
